Terminal Aerodrome Forecast
Issued by NWS Wilmington, OH

Current Version | Previous Version | Graphics & Text | Print | Product List | Glossary On
Versions: 1 2 3 4 5 6 7 8 9 10 11 12 13 14 15 16 17 18 19 20
000
FTUS41 KILN 220900 AAA
TAFDAY
TAF AMD
KDAY 220900Z 2209/2306 18010KT 5SM -SHRA VCTS BKN040CB OVC100
      TEMPO 2211/2215 30015G25KT 2SM TSRA BKN025CB
     FM221600 24012G20KT P6SM SCT040
     FM222200 23012KT 5SM -SHRA VCTS BKN040CB
     FM230000 23010KT 3SM -TSRA OVC035CB=

USA.gov is the U.S. government's official web portal to all federal, state and local government web resources and services.